CTN040 LDSP-LDZA
Flight info
| Callsign | CTN040 |
|---|---|
| Flight time | 0h 37m |
| Altitude | 19000 |
| Route | LDSP SIRM1W SIRMI DCT TINBO LDZA |
| Aircraft | A320/M-S/L |
Departure
| Time | 2026-05-07 21:42 |
|---|---|
| Airport | Split Saint Jerome Airport (LDSP) |
Arrival
| Time | 2026-05-07 22:19 |
|---|---|
| Airport | Zagreb Franjo Tuđman International Airport (LDZA) |
| Time | Latitude | Longitude | Altitude | Speed | Heading |
|---|---|---|---|---|---|
| 2026-05-07 21:25 | 43.53726 | 16.29874 | 70 ft | 0 kts | 114° |
| 2026-05-07 21:35 | 43.53726 | 16.29880 | 70 ft | 1 kts | 97° |
| 2026-05-07 21:35 | 43.53730 | 16.29887 | 64 ft | 1 kts | 55° |
| 2026-05-07 21:35 | 43.53735 | 16.29889 | 60 ft | 1 kts | 19° |
| 2026-05-07 21:35 | 43.53739 | 16.29887 | 60 ft | 1 kts | 351° |
| 2026-05-07 21:36 | 43.53741 | 16.29885 | 61 ft | 0 kts | 334° |
| 2026-05-07 21:36 | 43.53745 | 16.29879 | 63 ft | 1 kts | 315° |
| 2026-05-07 21:36 | 43.53747 | 16.29872 | 65 ft | 1 kts | 293° |
| 2026-05-07 21:36 | 43.53747 | 16.29859 | 65 ft | 3 kts | 269° |
| 2026-05-07 21:37 | 43.53748 | 16.29826 | 64 ft | 3 kts | 279° |
| 2026-05-07 21:37 | 43.53749 | 16.29790 | 71 ft | 4 kts | 257° |
| 2026-05-07 21:37 | 43.53733 | 16.29752 | 70 ft | 6 kts | 234° |
| 2026-05-07 21:37 | 43.53705 | 16.29699 | 66 ft | 9 kts | 232° |
| 2026-05-07 21:38 | 43.53659 | 16.29616 | 75 ft | 13 kts | 233° |
| 2026-05-07 21:38 | 43.53613 | 16.29512 | 68 ft | 10 kts | 248° |
| 2026-05-07 21:38 | 43.53610 | 16.29500 | 71 ft | 1 kts | 249° |
| 2026-05-07 21:38 | 43.53600 | 16.29495 | 70 ft | 3 kts | 186° |
| 2026-05-07 21:39 | 43.53605 | 16.29535 | 66 ft | 10 kts | 45° |
| 2026-05-07 21:39 | 43.53682 | 16.29552 | 76 ft | 11 kts | 314° |
| 2026-05-07 21:39 | 43.53686 | 16.29455 | 72 ft | 13 kts | 250° |
| 2026-05-07 21:39 | 43.53624 | 16.29316 | 71 ft | 22 kts | 232° |
| 2026-05-07 21:40 | 43.53509 | 16.29113 | 73 ft | 31 kts | 232° |
| 2026-05-07 21:40 | 43.53369 | 16.28864 | 76 ft | 33 kts | 233° |
| 2026-05-07 21:40 | 43.53302 | 16.28736 | 83 ft | 6 kts | 296° |
| 2026-05-07 21:40 | 43.53320 | 16.28754 | 83 ft | 4 kts | 70° |
| 2026-05-07 21:41 | 43.53332 | 16.28790 | 71 ft | 4 kts | 59° |
| 2026-05-07 21:41 | 43.53348 | 16.28822 | 68 ft | 4 kts | 52° |
| 2026-05-07 21:41 | 43.53459 | 16.29019 | 69 ft | 67 kts | 52° |
| 2026-05-07 21:41 | 43.53920 | 16.29844 | 67 ft | 148 kts | 52° |
| 2026-05-07 21:42 | 43.54594 | 16.31052 | 686 ft | 152 kts | 51° |
| 2026-05-07 21:42 | 43.54977 | 16.32459 | 1320 ft | 173 kts | 97° |
| 2026-05-07 21:42 | 43.54319 | 16.33717 | 2535 ft | 165 kts | 151° |
| 2026-05-07 21:42 | 43.53263 | 16.34411 | 3521 ft | 176 kts | 154° |
| 2026-05-07 21:43 | 43.52116 | 16.35274 | 4253 ft | 202 kts | 150° |
| 2026-05-07 21:43 | 43.50804 | 16.36444 | 4670 ft | 249 kts | 146° |
| 2026-05-07 21:43 | 43.49332 | 16.37930 | 4872 ft | 264 kts | 143° |
| 2026-05-07 21:43 | 43.47872 | 16.39474 | 4947 ft | 264 kts | 150° |
| 2026-05-07 21:44 | 43.46127 | 16.40052 | 5390 ft | 262 kts | 188° |
| 2026-05-07 21:44 | 43.44503 | 16.39023 | 6285 ft | 262 kts | 221° |
| 2026-05-07 21:44 | 43.43217 | 16.37210 | 6838 ft | 268 kts | 229° |
| 2026-05-07 21:44 | 43.42172 | 16.35101 | 7194 ft | 270 kts | 249° |
| 2026-05-07 21:45 | 43.42080 | 16.32516 | 7457 ft | 279 kts | 285° |
| 2026-05-07 21:45 | 43.43141 | 16.30308 | 8089 ft | 285 kts | 321° |
| 2026-05-07 21:45 | 43.44977 | 16.29301 | 9077 ft | 292 kts | 355° |
| 2026-05-07 21:45 | 43.47021 | 16.29605 | 10200 ft | 300 kts | 7° |
| 2026-05-07 21:46 | 43.49162 | 16.29979 | 10927 ft | 321 kts | 4° |
| 2026-05-07 21:46 | 43.51460 | 16.30217 | 11623 ft | 340 kts | 1° |
| 2026-05-07 21:46 | 43.53889 | 16.30369 | 12363 ft | 358 kts | 360° |
| 2026-05-07 21:46 | 43.56431 | 16.30458 | 13125 ft | 373 kts | 359° |
| 2026-05-07 21:47 | 43.59037 | 16.30498 | 13884 ft | 386 kts | 358° |
| 2026-05-07 21:47 | 43.61767 | 16.30507 | 14555 ft | 399 kts | 357° |
| 2026-05-07 21:47 | 43.64558 | 16.30507 | 15453 ft | 404 kts | 357° |
| 2026-05-07 21:47 | 43.67386 | 16.30504 | 16324 ft | 409 kts | 356° |
| 2026-05-07 21:48 | 43.70258 | 16.30498 | 17170 ft | 416 kts | 356° |
| 2026-05-07 21:48 | 43.73165 | 16.30491 | 18018 ft | 421 kts | 356° |
| 2026-05-07 21:48 | 43.76080 | 16.30485 | 18545 ft | 406 kts | 356° |
| 2026-05-07 21:48 | 43.78789 | 16.30490 | 18834 ft | 381 kts | 356° |
| 2026-05-07 21:49 | 43.81456 | 16.30486 | 18974 ft | 387 kts | 356° |
| 2026-05-07 21:49 | 43.84159 | 16.30474 | 19042 ft | 388 kts | 356° |
| 2026-05-07 21:49 | 43.86854 | 16.30461 | 19081 ft | 387 kts | 356° |
| 2026-05-07 21:49 | 43.89546 | 16.30448 | 19093 ft | 387 kts | 356° |
| 2026-05-07 21:50 | 43.92243 | 16.30435 | 19096 ft | 388 kts | 356° |
| 2026-05-07 21:50 | 43.94939 | 16.30423 | 19104 ft | 387 kts | 356° |
| 2026-05-07 21:50 | 43.97634 | 16.30415 | 19111 ft | 387 kts | 356° |
| 2026-05-07 21:50 | 44.00324 | 16.30406 | 19110 ft | 388 kts | 356° |
| 2026-05-07 21:51 | 44.03021 | 16.30397 | 19108 ft | 387 kts | 356° |
| 2026-05-07 21:51 | 44.05715 | 16.30389 | 19102 ft | 387 kts | 356° |
| 2026-05-07 21:51 | 44.08410 | 16.30383 | 19106 ft | 388 kts | 356° |
| 2026-05-07 21:51 | 44.11120 | 16.30383 | 19113 ft | 389 kts | 356° |
| 2026-05-07 21:52 | 44.13820 | 16.30483 | 19119 ft | 388 kts | 358° |
| 2026-05-07 21:52 | 44.16525 | 16.30653 | 19120 ft | 390 kts | 359° |
| 2026-05-07 21:52 | 44.19234 | 16.30854 | 19125 ft | 390 kts | 359° |
| 2026-05-07 21:52 | 44.21943 | 16.31067 | 19114 ft | 390 kts | 359° |
| 2026-05-07 21:53 | 44.24654 | 16.31282 | 19107 ft | 390 kts | 359° |
| 2026-05-07 21:53 | 44.27363 | 16.31494 | 19110 ft | 390 kts | 359° |
| 2026-05-07 21:53 | 44.30070 | 16.31705 | 19120 ft | 389 kts | 359° |
| 2026-05-07 21:53 | 44.32774 | 16.31913 | 19117 ft | 390 kts | 359° |
| 2026-05-07 21:54 | 44.35483 | 16.32117 | 19109 ft | 390 kts | 359° |
| 2026-05-07 21:54 | 44.38191 | 16.32319 | 19104 ft | 389 kts | 359° |
| 2026-05-07 21:54 | 44.40895 | 16.32521 | 19108 ft | 389 kts | 359° |
| 2026-05-07 21:54 | 44.43603 | 16.32720 | 19105 ft | 390 kts | 359° |
| 2026-05-07 21:55 | 44.46309 | 16.32918 | 19104 ft | 389 kts | 359° |
| 2026-05-07 21:55 | 44.49016 | 16.33114 | 19114 ft | 390 kts | 359° |
| 2026-05-07 21:55 | 44.51724 | 16.33308 | 19095 ft | 389 kts | 359° |
| 2026-05-07 21:55 | 44.54424 | 16.33501 | 19099 ft | 389 kts | 359° |
| 2026-05-07 21:56 | 44.57130 | 16.33696 | 19104 ft | 389 kts | 359° |
| 2026-05-07 21:56 | 44.59837 | 16.33889 | 19104 ft | 389 kts | 359° |
| 2026-05-07 21:56 | 44.62543 | 16.34083 | 19101 ft | 389 kts | 359° |
| 2026-05-07 21:56 | 44.65246 | 16.34276 | 19102 ft | 389 kts | 359° |
| 2026-05-07 21:57 | 44.67934 | 16.34469 | 19089 ft | 383 kts | 359° |
| 2026-05-07 21:57 | 44.70647 | 16.34661 | 19094 ft | 392 kts | 359° |
| 2026-05-07 21:57 | 44.73345 | 16.34855 | 19088 ft | 379 kts | 359° |
| 2026-05-07 21:57 | 44.75886 | 16.35045 | 19077 ft | 353 kts | 359° |
| 2026-05-07 21:58 | 44.78262 | 16.35232 | 18969 ft | 334 kts | 359° |
| 2026-05-07 21:58 | 44.80561 | 16.35405 | 18482 ft | 330 kts | 359° |
| 2026-05-07 21:58 | 44.82818 | 16.35563 | 17985 ft | 329 kts | 359° |
| 2026-05-07 21:58 | 44.85136 | 16.35721 | 17583 ft | 328 kts | 359° |
| 2026-05-07 21:59 | 44.87395 | 16.35876 | 17189 ft | 322 kts | 359° |
| 2026-05-07 21:59 | 44.89613 | 16.36031 | 16796 ft | 317 kts | 359° |
| 2026-05-07 21:59 | 44.91808 | 16.36183 | 16463 ft | 313 kts | 359° |
| 2026-05-07 21:59 | 44.93961 | 16.36333 | 15941 ft | 312 kts | 359° |
| 2026-05-07 22:00 | 44.96135 | 16.36481 | 15400 ft | 311 kts | 359° |
| 2026-05-07 22:00 | 44.98279 | 16.36631 | 14909 ft | 307 kts | 359° |
| 2026-05-07 22:00 | 45.00407 | 16.36781 | 14425 ft | 304 kts | 359° |
| 2026-05-07 22:00 | 45.02514 | 16.36930 | 13928 ft | 301 kts | 359° |
| 2026-05-07 22:01 | 45.04597 | 16.37078 | 13406 ft | 299 kts | 359° |
| 2026-05-07 22:01 | 45.06664 | 16.37223 | 12851 ft | 296 kts | 360° |
| 2026-05-07 22:01 | 45.08716 | 16.37368 | 12341 ft | 294 kts | 0° |
| 2026-05-07 22:01 | 45.10748 | 16.37514 | 11834 ft | 291 kts | 0° |
| 2026-05-07 22:02 | 45.12763 | 16.37658 | 11336 ft | 289 kts | 0° |
| 2026-05-07 22:02 | 45.14732 | 16.37799 | 10859 ft | 286 kts | 0° |
| 2026-05-07 22:02 | 45.16713 | 16.37940 | 10381 ft | 284 kts | 0° |
| 2026-05-07 22:02 | 45.18680 | 16.38083 | 9881 ft | 282 kts | 0° |
| 2026-05-07 22:03 | 45.20629 | 16.38223 | 9377 ft | 279 kts | 1° |
| 2026-05-07 22:03 | 45.22561 | 16.38364 | 8857 ft | 277 kts | 1° |
| 2026-05-07 22:03 | 45.24476 | 16.38506 | 8372 ft | 275 kts | 1° |
| 2026-05-07 22:03 | 45.26375 | 16.38646 | 7943 ft | 272 kts | 0° |
| 2026-05-07 22:04 | 45.28254 | 16.38788 | 7607 ft | 270 kts | 1° |
| 2026-05-07 22:04 | 45.30125 | 16.38926 | 7114 ft | 269 kts | 0° |
| 2026-05-07 22:04 | 45.31945 | 16.39061 | 6859 ft | 252 kts | 0° |
| 2026-05-07 22:04 | 45.33737 | 16.39203 | 6057 ft | 265 kts | 1° |
| 2026-05-07 22:05 | 45.35574 | 16.39349 | 5568 ft | 263 kts | 0° |
| 2026-05-07 22:05 | 45.37394 | 16.39484 | 5085 ft | 261 kts | 0° |
| 2026-05-07 22:05 | 45.39201 | 16.39615 | 4758 ft | 258 kts | 0° |
| 2026-05-07 22:05 | 45.40987 | 16.39742 | 4616 ft | 258 kts | 0° |
| 2026-05-07 22:06 | 45.42786 | 16.39867 | 4556 ft | 258 kts | 0° |
| 2026-05-07 22:06 | 45.44579 | 16.39995 | 4524 ft | 258 kts | 0° |
| 2026-05-07 22:06 | 45.46366 | 16.40122 | 4513 ft | 259 kts | 0° |
| 2026-05-07 22:06 | 45.48172 | 16.40253 | 4507 ft | 258 kts | 0° |
| 2026-05-07 22:07 | 45.49964 | 16.40383 | 4505 ft | 258 kts | 0° |
| 2026-05-07 22:07 | 45.51740 | 16.40513 | 4503 ft | 248 kts | 0° |
| 2026-05-07 22:07 | 45.53392 | 16.40640 | 4492 ft | 228 kts | 0° |
| 2026-05-07 22:07 | 45.54949 | 16.40761 | 4502 ft | 223 kts | 360° |
| 2026-05-07 22:08 | 45.56483 | 16.40874 | 4506 ft | 223 kts | 360° |
| 2026-05-07 22:08 | 45.58049 | 16.40986 | 4504 ft | 222 kts | 360° |
| 2026-05-07 22:08 | 45.59592 | 16.41095 | 4503 ft | 222 kts | 360° |
| 2026-05-07 22:08 | 45.61117 | 16.41204 | 4509 ft | 222 kts | 360° |
| 2026-05-07 22:09 | 45.62680 | 16.41317 | 4506 ft | 221 kts | 360° |
| 2026-05-07 22:09 | 45.64198 | 16.41427 | 4505 ft | 222 kts | 360° |
| 2026-05-07 22:09 | 45.65751 | 16.41548 | 4335 ft | 223 kts | 3° |
| 2026-05-07 22:09 | 45.67271 | 16.41902 | 4264 ft | 222 kts | 7° |
| 2026-05-07 22:10 | 45.68794 | 16.42296 | 4118 ft | 222 kts | 6° |
| 2026-05-07 22:10 | 45.70321 | 16.42580 | 3937 ft | 221 kts | 2° |
| 2026-05-07 22:10 | 45.71845 | 16.42727 | 3863 ft | 218 kts | 359° |
| 2026-05-07 22:10 | 45.73366 | 16.42770 | 3834 ft | 219 kts | 356° |
| 2026-05-07 22:11 | 45.74887 | 16.42746 | 3828 ft | 218 kts | 355° |
| 2026-05-07 22:11 | 45.76394 | 16.42680 | 3735 ft | 219 kts | 355° |
| 2026-05-07 22:11 | 45.77922 | 16.42596 | 3603 ft | 217 kts | 354° |
| 2026-05-07 22:11 | 45.79425 | 16.42520 | 3547 ft | 216 kts | 355° |
| 2026-05-07 22:12 | 45.80889 | 16.42169 | 3538 ft | 212 kts | 335° |
| 2026-05-07 22:12 | 45.82215 | 16.41240 | 3522 ft | 211 kts | 327° |
| 2026-05-07 22:12 | 45.83442 | 16.40113 | 3511 ft | 209 kts | 322° |
| 2026-05-07 22:12 | 45.84607 | 16.38857 | 3510 ft | 210 kts | 319° |
| 2026-05-07 22:13 | 45.85724 | 16.37516 | 3506 ft | 209 kts | 316° |
| 2026-05-07 22:13 | 45.86808 | 16.36125 | 3507 ft | 208 kts | 315° |
| 2026-05-07 22:13 | 45.87871 | 16.34711 | 3501 ft | 209 kts | 314° |
| 2026-05-07 22:13 | 45.88926 | 16.33286 | 3505 ft | 208 kts | 313° |
| 2026-05-07 22:14 | 45.89639 | 16.31549 | 3538 ft | 206 kts | 272° |
| 2026-05-07 22:14 | 45.89233 | 16.29614 | 3582 ft | 209 kts | 234° |
| 2026-05-07 22:14 | 45.88278 | 16.28030 | 3542 ft | 209 kts | 229° |
| 2026-05-07 22:14 | 45.87263 | 16.26529 | 3521 ft | 210 kts | 227° |
| 2026-05-07 22:15 | 45.86267 | 16.25071 | 3516 ft | 199 kts | 228° |
| 2026-05-07 22:15 | 45.85286 | 16.23628 | 3333 ft | 205 kts | 228° |
| 2026-05-07 22:15 | 45.84307 | 16.22165 | 3014 ft | 201 kts | 229° |
| 2026-05-07 22:15 | 45.83403 | 16.20796 | 2744 ft | 182 kts | 229° |
| 2026-05-07 22:16 | 45.82611 | 16.19587 | 2502 ft | 148 kts | 229° |
| 2026-05-07 22:16 | 45.81937 | 16.18559 | 2330 ft | 142 kts | 230° |
| 2026-05-07 22:16 | 45.81270 | 16.17531 | 2157 ft | 135 kts | 230° |
| 2026-05-07 22:16 | 45.80648 | 16.16572 | 1991 ft | 132 kts | 229° |
| 2026-05-07 22:17 | 45.80021 | 16.15605 | 1812 ft | 132 kts | 229° |
| 2026-05-07 22:17 | 45.79394 | 16.14648 | 1637 ft | 131 kts | 229° |
| 2026-05-07 22:17 | 45.78764 | 16.13684 | 1451 ft | 134 kts | 228° |
| 2026-05-07 22:17 | 45.78118 | 16.12698 | 1265 ft | 136 kts | 228° |
| 2026-05-07 22:18 | 45.77464 | 16.11707 | 1072 ft | 137 kts | 227° |
| 2026-05-07 22:18 | 45.76360 | 16.10031 | 736 ft | 140 kts | 227° |
| 2026-05-07 22:18 | 45.75476 | 16.08679 | 483 ft | 139 kts | 227° |
| 2026-05-07 22:19 | 45.75036 | 16.08007 | 388 ft | 138 kts | 226° |
| 2026-05-07 22:19 | 45.74438 | 16.07106 | 365 ft | 93 kts | 226° |
| 2026-05-07 22:19 | 45.74054 | 16.06523 | 364 ft | 65 kts | 227° |
| 2026-05-07 22:19 | 45.73885 | 16.06264 | 366 ft | 16 kts | 220° |
| 2026-05-07 22:20 | 45.73826 | 16.06282 | 364 ft | 7 kts | 136° |
| 2026-05-07 22:20 | 45.73821 | 16.06289 | 363 ft | 0 kts | 136° |
| 2026-05-07 22:22 | 45.73821 | 16.06290 | 363 ft | 2 kts | 136° |
| 2026-05-07 22:22 | 45.73800 | 16.06318 | 365 ft | 6 kts | 136° |
| 2026-05-07 22:22 | 45.73761 | 16.06372 | 361 ft | 9 kts | 134° |
| 2026-05-07 22:22 | 45.73760 | 16.06451 | 362 ft | 9 kts | 60° |
| 2026-05-07 22:23 | 45.73800 | 16.06516 | 364 ft | 9 kts | 46° |
| 2026-05-07 22:23 | 45.73848 | 16.06588 | 359 ft | 11 kts | 46° |
| 2026-05-07 22:23 | 45.73909 | 16.06680 | 358 ft | 14 kts | 47° |
| 2026-05-07 22:23 | 45.73974 | 16.06780 | 363 ft | 13 kts | 47° |
| 2026-05-07 22:24 | 45.74039 | 16.06880 | 357 ft | 14 kts | 47° |
| 2026-05-07 22:24 | 45.74107 | 16.06984 | 361 ft | 14 kts | 47° |
| 2026-05-07 22:24 | 45.74166 | 16.07078 | 362 ft | 12 kts | 52° |
| 2026-05-07 22:24 | 45.74226 | 16.07171 | 359 ft | 13 kts | 46° |
| 2026-05-07 22:25 | 45.74289 | 16.07263 | 363 ft | 13 kts | 45° |
| 2026-05-07 22:25 | 45.74351 | 16.07354 | 360 ft | 14 kts | 46° |
| 2026-05-07 22:25 | 45.74422 | 16.07460 | 360 ft | 16 kts | 46° |
| 2026-05-07 22:25 | 45.74498 | 16.07575 | 360 ft | 16 kts | 47° |
| 2026-05-07 22:26 | 45.74520 | 16.07718 | 354 ft | 16 kts | 123° |
| 2026-05-07 22:26 | 45.74436 | 16.07831 | 353 ft | 17 kts | 141° |
| 2026-05-07 22:26 | 45.74357 | 16.07893 | 363 ft | 9 kts | 180° |
| 2026-05-07 22:26 | 45.74309 | 16.07906 | 364 ft | 4 kts | 150° |
| 2026-05-07 22:27 | 45.74309 | 16.07907 | 364 ft | 0 kts | 147° |
| 2026-05-07 22:37 | 45.74307 | 16.07912 | 362 ft | 1 kts | 126° |
| 2026-05-07 22:37 | 45.74306 | 16.07917 | 366 ft | 0 kts | 104° |
| 2026-05-07 22:38 | 45.74309 | 16.07931 | 365 ft | 0 kts | 66° |
| 2026-05-07 22:38 | 45.74337 | 16.07926 | 364 ft | 6 kts | 339° |
| 2026-05-07 22:38 | 45.74388 | 16.07886 | 362 ft | 11 kts | 322° |
| 2026-05-07 22:38 | 45.74463 | 16.07800 | 357 ft | 15 kts | 317° |
| 2026-05-07 22:39 | 45.74525 | 16.07715 | 354 ft | 10 kts | 316° |
| 2026-05-07 22:39 | 45.74569 | 16.07654 | 357 ft | 6 kts | 316° |
| 2026-05-07 22:39 | 45.74597 | 16.07616 | 354 ft | 8 kts | 316° |
| 2026-05-07 22:39 | 45.74658 | 16.07536 | 356 ft | 4 kts | 320° |
| 2026-05-07 22:40 | 45.74666 | 16.07526 | 360 ft | 1 kts | 320° |
| 2026-05-07 22:40 | 45.74673 | 16.07512 | 357 ft | 3 kts | 303° |
| 2026-05-07 22:40 | 45.74658 | 16.07432 | 359 ft | 20 kts | 230° |
| 2026-05-07 22:40 | 45.74448 | 16.07114 | 365 ft | 76 kts | 227° |
| 2026-05-07 22:41 | 45.73886 | 16.06259 | 374 ft | 156 kts | 227° |
| 2026-05-07 22:41 | 45.73073 | 16.05020 | 755 ft | 163 kts | 227° |
| 2026-05-07 22:41 | 45.72289 | 16.03806 | 1222 ft | 167 kts | 229° |
| 2026-05-07 22:41 | 45.71527 | 16.02543 | 1875 ft | 166 kts | 230° |
| 2026-05-07 22:42 | 45.70803 | 16.01309 | 2527 ft | 153 kts | 231° |
| 2026-05-07 22:42 | 45.70126 | 16.00155 | 2925 ft | 154 kts | 231° |
| 2026-05-07 22:42 | 45.69444 | 15.98996 | 3238 ft | 155 kts | 231° |
| 2026-05-07 22:42 | 45.68742 | 15.97819 | 3388 ft | 155 kts | 231° |
| 2026-05-07 22:43 | 45.68041 | 15.96658 | 3467 ft | 155 kts | 231° |
| 2026-05-07 22:43 | 45.67336 | 15.95501 | 3629 ft | 153 kts | 230° |
| 2026-05-07 22:43 | 45.66618 | 15.94328 | 4063 ft | 159 kts | 230° |
| 2026-05-07 22:43 | 45.65828 | 15.93043 | 4591 ft | 190 kts | 230° |
| 2026-05-07 22:44 | 45.64908 | 15.91546 | 5443 ft | 210 kts | 230° |
| 2026-05-07 22:44 | 45.63907 | 15.89914 | 6448 ft | 227 kts | 230° |
| 2026-05-07 22:44 | 45.62832 | 15.88164 | 7453 ft | 241 kts | 230° |
| 2026-05-07 22:44 | 45.61697 | 15.86310 | 8493 ft | 255 kts | 230° |
| 2026-05-07 22:45 | 45.60523 | 15.84377 | 9737 ft | 259 kts | 230° |
| 2026-05-07 22:45 | 45.59325 | 15.82395 | 10727 ft | 273 kts | 230° |
| 2026-05-07 22:45 | 45.58035 | 15.80256 | 11416 ft | 294 kts | 230° |
| 2026-05-07 22:45 | 45.56659 | 15.77971 | 12142 ft | 313 kts | 230° |
| 2026-05-07 22:46 | 45.55199 | 15.75548 | 12890 ft | 330 kts | 230° |
| 2026-05-07 22:46 | 45.53671 | 15.73013 | 13671 ft | 345 kts | 230° |
| 2026-05-07 22:46 | 45.52074 | 15.70364 | 14375 ft | 358 kts | 230° |
| 2026-05-07 22:46 | 45.50424 | 15.67627 | 15089 ft | 369 kts | 229° |
| 2026-05-07 22:47 | 45.48751 | 15.64854 | 15558 ft | 369 kts | 229° |
| 2026-05-07 22:47 | 45.47053 | 15.62049 | 15859 ft | 379 kts | 229° |
| 2026-05-07 22:47 | 45.45320 | 15.59210 | 15983 ft | 380 kts | 229° |
| 2026-05-07 22:47 | 45.43576 | 15.56380 | 16035 ft | 379 kts | 229° |
| 2026-05-07 22:48 | 45.41832 | 15.53570 | 16061 ft | 379 kts | 228° |
| 2026-05-07 22:48 | 45.40080 | 15.50760 | 16073 ft | 380 kts | 228° |
| 2026-05-07 22:48 | 45.38301 | 15.47979 | 16081 ft | 379 kts | 229° |
| 2026-05-07 22:48 | 45.36570 | 15.45161 | 16082 ft | 378 kts | 228° |
| 2026-05-07 22:49 | 45.34815 | 15.42366 | 16083 ft | 379 kts | 228° |
| 2026-05-07 22:49 | 45.33059 | 15.39575 | 16087 ft | 379 kts | 228° |
| 2026-05-07 22:49 | 45.31305 | 15.36788 | 16086 ft | 378 kts | 228° |
| 2026-05-07 22:49 | 45.29694 | 15.33844 | 16086 ft | 379 kts | 241° |
| 2026-05-07 22:50 | 45.29027 | 15.30291 | 16101 ft | 384 kts | 264° |
| 2026-05-07 22:50 | 45.29101 | 15.26494 | 16090 ft | 385 kts | 271° |
| 2026-05-07 22:50 | 45.29340 | 15.22708 | 16087 ft | 386 kts | 273° |
| 2026-05-07 22:50 | 45.29746 | 15.18934 | 16082 ft | 387 kts | 278° |
| 2026-05-07 22:51 | 45.30292 | 15.15192 | 16087 ft | 386 kts | 278° |
| 2026-05-07 22:51 | 45.30855 | 15.11471 | 16082 ft | 386 kts | 279° |
| 2026-05-07 22:51 | 45.31426 | 15.07742 | 16090 ft | 386 kts | 279° |
| 2026-05-07 22:51 | 45.31995 | 15.04027 | 16081 ft | 385 kts | 279° |
| 2026-05-07 22:52 | 45.32559 | 15.00329 | 16080 ft | 374 kts | 279° |
| 2026-05-07 22:52 | 45.33089 | 14.96872 | 16087 ft | 342 kts | 278° |
| 2026-05-07 22:52 | 45.33572 | 14.93683 | 15944 ft | 319 kts | 278° |
| 2026-05-07 22:52 | 45.34024 | 14.90687 | 15732 ft | 301 kts | 278° |
| 2026-05-07 22:53 | 45.34454 | 14.87857 | 15521 ft | 285 kts | 277° |
| 2026-05-07 22:53 | 45.34856 | 14.85172 | 15330 ft | 270 kts | 277° |
| 2026-05-07 22:53 | 45.35240 | 14.82621 | 15164 ft | 258 kts | 277° |
| 2026-05-07 22:53 | 45.35609 | 14.80190 | 14989 ft | 246 kts | 277° |
| 2026-05-07 22:54 | 45.35957 | 14.77862 | 14761 ft | 237 kts | 277° |
| 2026-05-07 22:54 | 45.36182 | 14.76347 | 14522 ft | 236 kts | 277° |
| 2026-05-07 22:54 | 45.36634 | 14.73324 | 14037 ft | 235 kts | 277° |
| 2026-05-07 22:54 | 45.36975 | 14.71067 | 13631 ft | 233 kts | 277° |
| 2026-05-07 22:55 | 45.37313 | 14.68814 | 13212 ft | 232 kts | 277° |
| 2026-05-07 22:55 | 45.37645 | 14.66577 | 12814 ft | 231 kts | 277° |
| 2026-05-07 22:55 | 45.38008 | 14.64358 | 12427 ft | 232 kts | 287° |
| 2026-05-07 22:55 | 45.39050 | 14.62574 | 11944 ft | 249 kts | 328° |
| 2026-05-07 22:56 | 45.40143 | 14.61921 | 11669 ft | 253 kts | 335° |
| 2026-05-07 22:56 | 45.41820 | 14.61131 | 11343 ft | 259 kts | 336° |
| 2026-05-07 22:56 | 45.43510 | 14.60373 | 11171 ft | 255 kts | 337° |
| 2026-05-07 22:56 | 45.45186 | 14.59654 | 11075 ft | 251 kts | 337° |
| 2026-05-07 22:57 | 45.46869 | 14.58944 | 10953 ft | 252 kts | 338° |
| 2026-05-07 22:57 | 45.48517 | 14.58221 | 10718 ft | 242 kts | 335° |
| 2026-05-07 22:57 | 45.50079 | 14.57396 | 10240 ft | 240 kts | 330° |
| 2026-05-07 22:57 | 45.51573 | 14.56373 | 9748 ft | 236 kts | 324° |
| 2026-05-07 22:58 | 45.52754 | 14.54876 | 9216 ft | 224 kts | 299° |
| 2026-05-07 22:58 | 45.53517 | 14.52977 | 8711 ft | 219 kts | 288° |
| 2026-05-07 22:58 | 45.54005 | 14.50964 | 8248 ft | 213 kts | 280° |
| 2026-05-07 22:58 | 45.54365 | 14.48930 | 7774 ft | 210 kts | 277° |
| 2026-05-07 22:59 | 45.54600 | 14.46893 | 7414 ft | 205 kts | 270° |
| 2026-05-07 22:59 | 45.54594 | 14.44895 | 7061 ft | 201 kts | 261° |
| 2026-05-07 22:59 | 45.54363 | 14.42940 | 6629 ft | 200 kts | 253° |
| 2026-05-07 22:59 | 45.53916 | 14.41076 | 6407 ft | 197 kts | 244° |
| 2026-05-07 23:00 | 45.53271 | 14.39365 | 6314 ft | 197 kts | 236° |
| 2026-05-07 23:00 | 45.52426 | 14.37834 | 6294 ft | 196 kts | 226° |
| 2026-05-07 23:00 | 45.51414 | 14.36513 | 6276 ft | 197 kts | 219° |
| 2026-05-07 23:00 | 45.50268 | 14.35461 | 6254 ft | 197 kts | 209° |
| 2026-05-07 23:01 | 45.48940 | 14.34646 | 6230 ft | 232 kts | 201° |
| 2026-05-07 23:01 | 45.47155 | 14.34188 | 6061 ft | 295 kts | 181° |
| 2026-05-07 23:01 | 45.45018 | 14.34967 | 5566 ft | 316 kts | 162° |
| 2026-05-07 23:01 | 45.43109 | 14.36212 | 5175 ft | 282 kts | 156° |
| 2026-05-07 23:02 | 45.41620 | 14.37345 | 4876 ft | 208 kts | 156° |
| 2026-05-07 23:02 | 45.40437 | 14.38304 | 4630 ft | 194 kts | 156° |
| 2026-05-07 23:02 | 45.39296 | 14.39233 | 4380 ft | 173 kts | 155° |
| 2026-05-07 23:02 | 45.38346 | 14.40040 | 4209 ft | 155 kts | 156° |
| 2026-05-07 23:03 | 45.37424 | 14.40850 | 3932 ft | 155 kts | 153° |
| 2026-05-07 23:03 | 45.36544 | 14.41711 | 3717 ft | 153 kts | 151° |
| 2026-05-07 23:03 | 45.35681 | 14.42595 | 3528 ft | 152 kts | 150° |
| 2026-05-07 23:03 | 45.34831 | 14.43488 | 3348 ft | 152 kts | 150° |
| 2026-05-07 23:04 | 45.33989 | 14.44373 | 3183 ft | 148 kts | 150° |
| 2026-05-07 23:04 | 45.33173 | 14.45217 | 2981 ft | 145 kts | 150° |
| 2026-05-07 23:04 | 45.32389 | 14.46029 | 2796 ft | 136 kts | 150° |
| 2026-05-07 23:04 | 45.31593 | 14.46826 | 2592 ft | 143 kts | 149° |
| 2026-05-07 23:05 | 45.30777 | 14.47654 | 2328 ft | 145 kts | 146° |
| 2026-05-07 23:05 | 45.30006 | 14.48456 | 2092 ft | 137 kts | 143° |
| 2026-05-07 23:05 | 45.29227 | 14.49280 | 1860 ft | 140 kts | 142° |
| 2026-05-07 23:05 | 45.28440 | 14.50110 | 1672 ft | 141 kts | 142° |
| 2026-05-07 23:06 | 45.27652 | 14.50940 | 1489 ft | 140 kts | 142° |
| 2026-05-07 23:06 | 45.26866 | 14.51758 | 1313 ft | 140 kts | 143° |
| 2026-05-07 23:06 | 45.26091 | 14.52560 | 1136 ft | 136 kts | 144° |
| 2026-05-07 23:06 | 45.25324 | 14.53345 | 967 ft | 135 kts | 144° |
| 2026-05-07 23:07 | 45.24566 | 14.54118 | 792 ft | 133 kts | 145° |
| 2026-05-07 23:07 | 45.23811 | 14.54889 | 616 ft | 133 kts | 146° |
| 2026-05-07 23:07 | 45.23058 | 14.55645 | 431 ft | 132 kts | 146° |
| 2026-05-07 23:07 | 45.22313 | 14.56393 | 275 ft | 128 kts | 143° |
| 2026-05-07 23:08 | 45.21724 | 14.57004 | 263 ft | 72 kts | 143° |
| 2026-05-07 23:08 | 45.21602 | 14.57191 | 263 ft | 7 kts | 9° |
| 2026-05-07 23:08 | 45.21625 | 14.57193 | 263 ft | 0 kts | 2° |